Time;durP1;ratioP1;P1;durP2;ratioP2;P2;SDS_P1;SDS_P2;PMS_P1;PMS_P2;Temp;Humidity;BMP_temperature;BMP_pressure;BME280_temperature;BME280_humidity;BME280_pressure;Samples;Min_cycle;Max_cycle;Signal;HPM_P1;HPM_P2
2021/12/14 00:02:14;;;;;;;13.07;8.87;;;;;;;;;;5005788;28;20203;-85
2021/12/14 00:04:43;;;;;;;12.57;9.07;;;;;;;;;;5001179;28;20210;-84
2021/12/14 00:07:12;;;;;;;13.20;9.73;;;;;;;;;;5000654;28;20227;-82
2021/12/14 00:09:42;;;;;;;12.60;9.00;;;;;;;;;;4999003;28;20230;-85
2021/12/14 00:12:21;;;;;;;11.60;8.67;;;;;;;;;;4997900;28;20234;-84
2021/12/14 00:15:05;;;;;;;11.67;8.33;;;;;;;;;;4997209;28;20205;-84
2021/12/14 00:17:35;;;;;;;13.03;8.83;;;;;;;;;;4997745;28;20239;-85
2021/12/14 00:20:03;;;;;;;14.03;9.53;;;;;;;;;;4981508;28;20249;-85
2021/12/14 00:22:37;;;;;;;12.67;9.17;;;;;;;;;;4998156;28;20223;-85
2021/12/14 00:25:06;;;;;;;12.33;8.73;;;;;;;;;;4998334;28;20199;-85
2021/12/14 00:27:36;;;;;;;11.63;9.03;;;;;;;;;;4997861;28;20223;-84
2021/12/14 00:30:05;;;;;;;12.17;8.93;;;;;;;;;;4996309;28;20199;-84
2021/12/14 00:32:36;;;;;;;12.03;8.20;;;;;;;;;;4997324;28;20238;-84
2021/12/14 00:35:04;;;;;;;11.90;8.03;;;;;;;;;;4997287;28;20254;-85
2021/12/14 00:37:33;;;;;;;12.10;8.67;;;;;;;;;;4997214;28;20230;-84
2021/12/14 00:40:01;;;;;;;12.00;8.47;;;;;;;;;;4996281;28;20223;-84
2021/12/14 00:42:30;;;;;;;11.70;8.83;;;;;;;;;;4997300;28;20195;-84
2021/12/14 00:44:57;;;;;;;14.10;9.53;;;;;;;;;;4996229;28;20270;-84
2021/12/14 00:47:25;;;;;;;13.10;9.10;;;;;;;;;;4996272;28;20266;-84
2021/12/14 00:49:54;;;;;;;13.77;9.33;;;;;;;;;;4997077;28;20222;-83
2021/12/14 00:52:22;;;;;;;12.63;8.77;;;;;;;;;;4995873;28;20203;-86
2021/12/14 00:54:49;;;;;;;13.40;8.83;;;;;;;;;;4995412;28;20254;-85
2021/12/14 00:57:17;;;;;;;12.57;9.43;;;;;;;;;;4995229;28;20555;-85
2021/12/14 00:59:46;;;;;;;11.83;8.47;;;;;;;;;;4983375;28;20258;-87
2021/12/14 01:02:15;;;;;;;13.43;8.50;;;;;;;;;;4995573;28;20226;-85
2021/12/14 01:04:44;;;;;;;12.93;8.53;;;;;;;;;;4994981;28;20213;-87
2021/12/14 01:07:14;;;;;;;11.20;8.47;;;;;;;;;;4995718;28;20284;-85
2021/12/14 01:09:42;;;;;;;12.43;8.50;;;;;;;;;;4995400;28;20214;-85
2021/12/14 01:12:15;;;;;;;13.13;8.63;;;;;;;;;;4994986;28;20286;-85
2021/12/14 01:14:46;;;;;;;11.57;7.97;;;;;;;;;;4995350;28;20217;-85
2021/12/14 01:17:26;;;;;;;13.00;8.77;;;;;;;;;;4988537;28;20239;-84
2021/12/14 01:19:57;;;;;;;12.37;8.77;;;;;;;;;;4984834;28;20230;-85
2021/12/14 01:22:38;;;;;;;12.20;8.17;;;;;;;;;;4973768;28;20215;-83
2021/12/14 01:25:09;;;;;;;14.07;9.23;;;;;;;;;;4984751;28;20225;-86
2021/12/14 01:27:42;;;;;;;14.77;10.07;;;;;;;;;;5004707;28;20702;-84
2021/12/14 01:30:14;;;;;;;15.47;9.70;;;;;;;;;;4992415;28;20207;-85
2021/12/14 01:32:45;;;;;;;16.60;10.40;;;;;;;;;;4992990;28;20203;-85
2021/12/14 01:35:14;;;;;;;14.13;9.37;;;;;;;;;;4979825;28;20215;-85
2021/12/14 01:37:47;;;;;;;15.70;10.60;;;;;;;;;;4992148;28;20223;-84
2021/12/14 01:40:45;;;;;;;14.00;9.57;;;;;;;;;;4993776;28;20222;-85
2021/12/14 01:43:07;;;;;;;13.87;10.00;;;;;;;;;;5001796;28;20202;-83
2021/12/14 01:45:34;;;;;;;15.90;10.17;;;;;;;;;;5000478;28;20218;-85
2021/12/14 01:48:03;;;;;;;15.53;10.17;;;;;;;;;;5000254;28;20246;-84
2021/12/14 01:50:33;;;;;;;15.43;10.63;;;;;;;;;;4996186;28;20241;-83
2021/12/14 01:53:01;;;;;;;14.20;9.90;;;;;;;;;;4995257;28;20240;-84
2021/12/14 01:55:29;;;;;;;15.10;10.23;;;;;;;;;;4995928;28;20286;-83
2021/12/14 01:57:57;;;;;;;18.43;11.10;;;;;;;;;;4995766;28;20219;-84
2021/12/14 02:00:27;;;;;;;16.93;10.63;;;;;;;;;;5009635;28;20230;-84
2021/12/14 02:02:55;;;;;;;17.43;10.60;;;;;;;;;;5011745;28;20196;-85
2021/12/14 02:05:26;;;;;;;16.57;11.17;;;;;;;;;;4996373;28;20302;-84
2021/12/14 02:07:53;;;;;;;15.93;10.73;;;;;;;;;;4998872;28;20231;-84
2021/12/14 02:10:23;;;;;;;16.37;10.60;;;;;;;;;;4998063;28;20223;-82
2021/12/14 02:12:50;;;;;;;16.90;10.73;;;;;;;;;;5005565;28;20234;-82
2021/12/14 02:15:20;;;;;;;14.80;9.57;;;;;;;;;;5015056;28;20223;-85
2021/12/14 02:17:47;;;;;;;16.03;10.27;;;;;;;;;;5038820;23;20678;-86
2021/12/14 02:20:21;;;;;;;16.17;10.17;;;;;;;;;;5008966;28;20290;-86
2021/12/14 02:22:49;;;;;;;14.73;9.70;;;;;;;;;;5006624;28;20203;-86
2021/12/14 02:25:17;;;;;;;15.20;9.37;;;;;;;;;;5008284;28;20203;-86
2021/12/14 02:27:46;;;;;;;12.67;8.77;;;;;;;;;;5007290;28;20258;-86
2021/12/14 02:30:15;;;;;;;13.57;8.57;;;;;;;;;;5007454;28;20208;-83
2021/12/14 02:32:42;;;;;;;13.00;8.33;;;;;;;;;;5008499;28;20226;-85
2021/12/14 02:35:12;;;;;;;11.10;7.70;;;;;;;;;;5003019;28;20203;-85
2021/12/14 02:37:41;;;;;;;10.67;7.73;;;;;;;;;;5006062;28;20234;-84
2021/12/14 02:40:18;;;;;;;12.07;8.67;;;;;;;;;;5000523;28;20306;-85
2021/12/14 02:42:46;;;;;;;13.33;8.53;;;;;;;;;;5007169;28;20211;-85
2021/12/14 02:45:13;;;;;;;13.20;8.13;;;;;;;;;;5007225;28;20630;-83
2021/12/14 02:47:41;;;;;;;14.37;8.53;;;;;;;;;;5003939;28;20243;-84
2021/12/14 02:50:09;;;;;;;13.20;7.90;;;;;;;;;;5005202;28;20214;-84
2021/12/14 02:52:37;;;;;;;10.97;8.20;;;;;;;;;;5004691;28;20223;-84
2021/12/14 02:55:07;;;;;;;12.10;8.03;;;;;;;;;;5007761;28;20199;-84
2021/12/14 02:57:37;;;;;;;13.73;8.60;;;;;;;;;;5006863;28;20223;-84
2021/12/14 03:00:07;;;;;;;11.03;8.03;;;;;;;;;;5006167;28;20231;-84
2021/12/14 03:02:34;;;;;;;10.77;7.90;;;;;;;;;;5004570;28;20199;-84
2021/12/14 03:05:06;;;;;;;11.47;7.57;;;;;;;;;;5005755;28;20227;-84
2021/12/14 03:07:37;;;;;;;12.13;8.00;;;;;;;;;;5005300;28;20239;-83
2021/12/14 03:10:19;;;;;;;10.67;7.57;;;;;;;;;;5006198;28;20298;-83
2021/12/14 03:12:49;;;;;;;10.63;6.93;;;;;;;;;;5002030;28;20330;-83
2021/12/14 03:15:19;;;;;;;11.77;7.70;;;;;;;;;;5001348;28;20226;-84
2021/12/14 03:17:47;;;;;;;10.97;7.43;;;;;;;;;;5001878;28;20262;-85
2021/12/14 03:20:16;;;;;;;10.73;7.20;;;;;;;;;;5006561;28;20313;-84
2021/12/14 03:22:46;;;;;;;11.73;7.37;;;;;;;;;;5002235;28;20278;-84
2021/12/14 03:25:15;;;;;;;11.37;7.17;;;;;;;;;;5002692;28;20192;-84
2021/12/14 03:27:43;;;;;;;12.03;7.77;;;;;;;;;;5002087;28;20246;-84
2021/12/14 03:30:30;;;;;;;11.90;7.33;;;;;;;;;;5002238;28;20210;-84
2021/12/14 03:32:58;;;;;;;10.60;7.17;;;;;;;;;;4993383;28;20203;-83
2021/12/14 03:35:35;;;;;;;8.60;6.33;;;;;;;;;;5001562;28;20290;-84
2021/12/14 03:38:07;;;;;;;9.43;6.63;;;;;;;;;;4990846;28;20274;-84
2021/12/14 03:40:34;;;;;;;9.90;6.30;;;;;;;;;;4999626;28;20278;-84
2021/12/14 03:43:01;;;;;;;9.40;6.57;;;;;;;;;;5000688;28;20195;-84
2021/12/14 03:45:30;;;;;;;9.53;6.33;;;;;;;;;;5002083;28;20315;-85
2021/12/14 03:47:59;;;;;;;8.73;6.33;;;;;;;;;;5000203;28;20246;-84
2021/12/14 03:50:28;;;;;;;7.77;6.07;;;;;;;;;;4994517;28;20195;-84
2021/12/14 03:52:55;;;;;;;7.63;5.60;;;;;;;;;;5001798;28;20203;-84
2021/12/14 03:55:24;;;;;;;8.13;5.73;;;;;;;;;;5003110;28;20270;-84
2021/12/14 03:57:52;;;;;;;8.67;6.27;;;;;;;;;;5003310;28;20225;-84
2021/12/14 04:00:22;;;;;;;6.60;5.17;;;;;;;;;;5001760;28;20291;-84
2021/12/14 04:02:51;;;;;;;6.93;5.83;;;;;;;;;;4996144;28;20191;-84
2021/12/14 04:05:20;;;;;;;9.17;6.10;;;;;;;;;;4997564;28;20231;-84
2021/12/14 04:07:48;;;;;;;8.27;5.90;;;;;;;;;;4986628;28;20296;-84
2021/12/14 04:10:18;;;;;;;6.93;5.40;;;;;;;;;;4977613;28;20294;-85
2021/12/14 04:12:45;;;;;;;8.07;5.93;;;;;;;;;;4976239;28;20295;-84
2021/12/14 04:15:12;;;;;;;6.90;6.00;;;;;;;;;;4975933;28;20308;-84
2021/12/14 04:17:40;;;;;;;7.70;5.83;;;;;;;;;;4986097;28;20652;-84
2021/12/14 04:20:12;;;;;;;7.97;5.93;;;;;;;;;;4994540;28;20200;-84
2021/12/14 04:22:39;;;;;;;7.03;5.73;;;;;;;;;;4995316;28;20199;-85
2021/12/14 04:25:09;;;;;;;7.47;5.70;;;;;;;;;;4995833;28;20253;-85
2021/12/14 04:27:36;;;;;;;7.07;5.67;;;;;;;;;;4996301;28;20223;-85
2021/12/14 04:30:09;;;;;;;6.53;5.03;;;;;;;;;;4995028;28;20191;-84
2021/12/14 04:32:36;;;;;;;7.03;5.90;;;;;;;;;;4995236;28;20195;-85
2021/12/14 04:35:04;;;;;;;7.27;6.30;;;;;;;;;;4995535;28;20230;-85
2021/12/14 04:37:37;;;;;;;6.57;5.50;;;;;;;;;;4996942;28;20258;-85
2021/12/14 04:40:17;;;;;;;6.87;5.53;;;;;;;;;;4995306;28;20188;-84
2021/12/14 04:53:48;;;;;;;6.90;5.70;;;;;;;;;;4994799;28;20246;-86
2021/12/14 04:56:17;;;;;;;7.57;5.90;;;;;;;;;;4995693;28;20301;-85
2021/12/14 04:58:46;;;;;;;7.17;5.63;;;;;;;;;;4994565;28;20219;-85
2021/12/14 05:01:15;;;;;;;7.20;5.67;;;;;;;;;;4994215;28;20222;-84
2021/12/14 05:03:44;;;;;;;7.80;5.93;;;;;;;;;;4994916;28;20290;-85
2021/12/14 05:06:16;;;;;;;6.77;5.00;;;;;;;;;;4994995;28;20195;-84
2021/12/14 05:11:31;;;;;;;6.60;5.43;;;;;;;;;;4994890;28;20202;-85
2021/12/14 05:14:02;;;;;;;5.20;4.70;;;;;;;;;;4993863;28;20289;-84
2021/12/14 05:16:30;;;;;;;6.60;5.50;;;;;;;;;;4994405;28;20290;-85
2021/12/14 05:18:59;;;;;;;5.80;5.17;;;;;;;;;;4994745;28;20299;-85
2021/12/14 05:21:27;;;;;;;5.83;5.03;;;;;;;;;;4993890;28;20263;-85
2021/12/14 05:23:54;;;;;;;7.63;4.97;;;;;;;;;;4995631;28;20647;-84
2021/12/14 05:26:22;;;;;;;5.87;5.13;;;;;;;;;;4995844;28;20231;-84
2021/12/14 05:28:50;;;;;;;8.63;5.37;;;;;;;;;;4995549;28;20250;-84
2021/12/14 05:31:18;;;;;;;6.20;5.13;;;;;;;;;;4995602;28;20231;-84
2021/12/14 05:33:45;;;;;;;6.87;5.70;;;;;;;;;;4996472;28;20705;-84
2021/12/14 05:36:15;;;;;;;7.83;6.03;;;;;;;;;;4996001;28;20286;-84
2021/12/14 05:38:52;;;;;;;7.93;6.17;;;;;;;;;;4998397;28;20223;-84
2021/12/14 05:44:05;;;;;;;7.43;5.90;;;;;;;;;;4995452;28;20322;-84
2021/12/14 05:46:33;;;;;;;7.67;6.10;;;;;;;;;;5000046;28;20210;-84
2021/12/14 05:49:01;;;;;;;6.57;5.60;;;;;;;;;;5000960;28;20223;-84
2021/12/14 05:51:29;;;;;;;8.33;6.33;;;;;;;;;;4998903;28;20250;-84
2021/12/14 05:53:56;;;;;;;8.07;6.20;;;;;;;;;;4999934;28;20263;-84
2021/12/14 05:56:25;;;;;;;7.77;6.23;;;;;;;;;;5001413;28;20219;-84
2021/12/14 05:58:53;;;;;;;7.37;5.57;;;;;;;;;;5001592;28;20243;-83
2021/12/14 06:01:24;;;;;;;7.70;6.00;;;;;;;;;;4997475;28;20234;-84
2021/12/14 06:03:53;;;;;;;7.43;5.87;;;;;;;;;;4996416;28;20215;-84
2021/12/14 06:06:22;;;;;;;6.93;5.77;;;;;;;;;;4990069;28;20203;-84
2021/12/14 06:08:49;;;;;;;8.30;5.87;;;;;;;;;;4999607;28;20246;-83
2021/12/14 06:11:20;;;;;;;7.13;6.00;;;;;;;;;;5000064;28;20231;-85
2021/12/14 06:13:47;;;;;;;9.17;6.37;;;;;;;;;;5000725;28;20287;-84
2021/12/14 06:16:24;;;;;;;7.90;6.30;;;;;;;;;;4999940;28;20290;-84
2021/12/14 06:18:51;;;;;;;9.73;6.83;;;;;;;;;;4994980;28;20261;-85
2021/12/14 06:21:29;;;;;;;8.43;7.03;;;;;;;;;;5000339;28;20250;-85
2021/12/14 06:24:02;;;;;;;10.27;6.97;;;;;;;;;;5003161;28;20287;-85
2021/12/14 06:26:33;;;;;;;8.77;6.43;;;;;;;;;;4990109;28;20263;-85
2021/12/14 06:29:05;;;;;;;8.60;6.57;;;;;;;;;;5005019;28;20680;-85
2021/12/14 06:31:33;;;;;;;9.20;7.13;;;;;;;;;;5002661;28;20238;-85
2021/12/14 06:34:11;;;;;;;11.27;7.17;;;;;;;;;;5001314;28;20231;-86
2021/12/14 06:36:52;;;;;;;10.87;7.47;;;;;;;;;;5001266;28;20199;-86
2021/12/14 06:39:19;;;;;;;9.50;6.80;;;;;;;;;;4999813;28;20298;-85
2021/12/14 06:41:47;;;;;;;10.30;6.73;;;;;;;;;;5000158;28;20219;-85
2021/12/14 06:44:14;;;;;;;8.30;6.60;;;;;;;;;;4999911;28;20227;-86
2021/12/14 06:46:42;;;;;;;9.27;6.77;;;;;;;;;;4996739;28;20238;-85
2021/12/14 06:49:11;;;;;;;9.50;7.23;;;;;;;;;;4998052;28;20219;-85
2021/12/14 06:51:39;;;;;;;7.73;6.23;;;;;;;;;;4998940;28;20278;-85
2021/12/14 06:54:09;;;;;;;7.77;6.87;;;;;;;;;;4998989;28;20290;-86
2021/12/14 06:56:37;;;;;;;8.37;7.00;;;;;;;;;;4997232;28;20301;-85
2021/12/14 06:59:05;;;;;;;6.77;6.07;;;;;;;;;;5006843;28;20227;-85
2021/12/14 07:01:34;;;;;;;6.87;5.97;;;;;;;;;;5005688;28;20250;-85
2021/12/14 07:04:06;;;;;;;7.33;5.77;;;;;;;;;;5007577;28;20230;-84
2021/12/14 07:06:36;;;;;;;8.07;6.03;;;;;;;;;;4991095;28;20267;-87
2021/12/14 07:09:08;;;;;;;7.23;6.07;;;;;;;;;;4993609;28;20234;-90
2021/12/14 07:11:35;;;;;;;7.93;6.53;;;;;;;;;;4990625;28;20203;-84
2021/12/14 07:14:03;;;;;;;7.07;5.63;;;;;;;;;;5001463;28;20267;-85
2021/12/14 07:16:32;;;;;;;6.77;5.03;;;;;;;;;;4997424;28;20257;-85
2021/12/14 07:19:01;;;;;;;6.73;5.30;;;;;;;;;;4998981;28;20223;-83
2021/12/14 07:21:37;;;;;;;6.67;5.30;;;;;;;;;;5000117;28;20254;-84
2021/12/14 07:24:29;;;;;;;5.67;5.03;;;;;;;;;;5000465;28;20199;-84
2021/12/14 07:27:11;;;;;;;6.63;5.37;;;;;;;;;;5001539;28;20290;-84
2021/12/14 07:29:38;;;;;;;6.07;4.77;;;;;;;;;;5001273;28;20690;-85
2021/12/14 07:32:06;;;;;;;6.03;4.63;;;;;;;;;;4999674;28;20265;-84
2021/12/14 07:34:33;;;;;;;5.70;4.70;;;;;;;;;;4999515;28;20209;-86
2021/12/14 07:37:02;;;;;;;6.97;5.10;;;;;;;;;;4994305;28;20253;-86
2021/12/14 07:39:29;;;;;;;6.03;5.00;;;;;;;;;;4999116;28;20283;-85
2021/12/14 07:41:58;;;;;;;7.50;4.80;;;;;;;;;;5008873;28;20270;-85
2021/12/14 07:44:26;;;;;;;5.57;5.07;;;;;;;;;;4990600;28;20231;-86
2021/12/14 07:46:55;;;;;;;8.20;5.20;;;;;;;;;;4997896;28;20204;-84
2021/12/14 07:49:24;;;;;;;5.83;4.50;;;;;;;;;;4996273;28;20699;-83
2021/12/14 07:51:55;;;;;;;7.83;4.87;;;;;;;;;;4998160;28;20231;-83
2021/12/14 07:54:26;;;;;;;5.67;4.90;;;;;;;;;;4992995;28;20275;-83
2021/12/14 07:56:54;;;;;;;5.87;5.27;;;;;;;;;;4992025;28;20204;-83
2021/12/14 07:59:23;;;;;;;5.80;4.73;;;;;;;;;;4999814;28;20258;-83
2021/12/14 08:01:52;;;;;;;6.60;4.67;;;;;;;;;;4999874;28;20254;-84
2021/12/14 08:04:19;;;;;;;7.00;5.03;;;;;;;;;;4999191;28;20200;-83
2021/12/14 08:06:50;;;;;;;4.90;4.43;;;;;;;;;;4999384;28;20286;-83
2021/12/14 08:09:20;;;;;;;5.60;5.00;;;;;;;;;;4998963;28;20290;-83
2021/12/14 08:11:48;;;;;;;7.13;4.70;;;;;;;;;;4999750;28;20214;-83
2021/12/14 08:14:21;;;;;;;11.77;6.93;;;;;;;;;;4991092;28;20232;-83
2021/12/14 08:16:49;;;;;;;6.10;5.50;;;;;;;;;;5003170;28;20243;-82
2021/12/14 08:19:25;;;;;;;6.70;5.30;;;;;;;;;;5019988;23;20281;-81
2021/12/14 08:21:52;;;;;;;7.37;5.53;;;;;;;;;;4999315;28;20226;-83
2021/12/14 08:24:20;;;;;;;7.97;5.70;;;;;;;;;;5002477;28;20207;-84
2021/12/14 08:26:52;;;;;;;8.37;6.13;;;;;;;;;;5002940;28;20222;-81
2021/12/14 08:29:23;;;;;;;8.00;6.07;;;;;;;;;;5002282;28;20277;-84
2021/12/14 08:31:52;;;;;;;6.07;5.30;;;;;;;;;;5004126;28;20203;-85
2021/12/14 08:34:21;;;;;;;6.47;5.60;;;;;;;;;;5004930;28;20215;-86
2021/12/14 08:36:53;;;;;;;6.80;5.60;;;;;;;;;;5000053;28;20211;-90
2021/12/14 08:39:23;;;;;;;6.83;5.80;;;;;;;;;;5002470;28;20226;-83
2021/12/14 08:41:56;;;;;;;10.10;6.63;;;;;;;;;;5003810;28;20310;-81
2021/12/14 08:44:35;;;;;;;7.20;6.50;;;;;;;;;;4996539;28;20203;-83
2021/12/14 08:47:02;;;;;;;7.27;6.23;;;;;;;;;;4995912;28;20222;-84
2021/12/14 08:49:30;;;;;;;7.20;6.30;;;;;;;;;;4998409;28;20234;-82
2021/12/14 08:51:57;;;;;;;6.67;5.87;;;;;;;;;;4998941;28;20200;-85
2021/12/14 08:54:29;;;;;;;7.50;5.37;;;;;;;;;;4997537;28;20207;-84
2021/12/14 08:56:59;;;;;;;5.93;5.37;;;;;;;;;;4999566;28;20246;-84
2021/12/14 08:59:27;;;;;;;7.60;5.30;;;;;;;;;;4996764;28;20234;-83
2021/12/14 09:01:54;;;;;;;6.63;5.07;;;;;;;;;;4999811;28;20249;-84
2021/12/14 09:04:23;;;;;;;5.30;4.50;;;;;;;;;;4999365;28;20207;-84
2021/12/14 09:06:52;;;;;;;6.23;4.77;;;;;;;;;;5010199;28;20254;-84
2021/12/14 09:09:22;;;;;;;4.83;4.33;;;;;;;;;;5014524;28;20211;-85
2021/12/14 09:11:51;;;;;;;4.97;4.33;;;;;;;;;;5011605;28;20191;-87
2021/12/14 09:14:21;;;;;;;5.13;4.63;;;;;;;;;;4996563;28;20228;-85
2021/12/14 09:16:51;;;;;;;5.00;4.50;;;;;;;;;;4999196;28;20234;-85
2021/12/14 09:19:20;;;;;;;4.63;4.13;;;;;;;;;;4998478;28;20251;-85
2021/12/14 09:21:49;;;;;;;4.87;4.10;;;;;;;;;;4998270;28;20234;-83
2021/12/14 09:24:20;;;;;;;4.10;3.67;;;;;;;;;;5001113;28;20265;-83
2021/12/14 09:26:56;;;;;;;6.60;3.70;;;;;;;;;;4999331;28;20226;-84
2021/12/14 09:29:30;;;;;;;4.03;3.60;;;;;;;;;;4999399;28;20230;-84
2021/12/14 09:31:59;;;;;;;5.37;4.03;;;;;;;;;;4992097;28;20204;-85
2021/12/14 09:34:28;;;;;;;3.93;2.90;;;;;;;;;;4993138;28;20258;-85
2021/12/14 09:36:56;;;;;;;3.87;3.37;;;;;;;;;;4998663;28;20222;-84
2021/12/14 09:39:36;;;;;;;4.87;3.53;;;;;;;;;;4998586;28;20230;-85
2021/12/14 09:42:19;;;;;;;4.03;3.63;;;;;;;;;;4996153;28;20226;-84
2021/12/14 09:44:52;;;;;;;7.03;4.07;;;;;;;;;;4998762;28;20194;-85
2021/12/14 09:47:26;;;;;;;3.57;3.27;;;;;;;;;;4997426;28;20211;-84
2021/12/14 09:49:57;;;;;;;6.90;3.10;;;;;;;;;;4997430;28;20302;-84
2021/12/14 09:52:26;;;;;;;3.40;3.10;;;;;;;;;;4991096;28;20231;-84
2021/12/14 09:55:03;;;;;;;2.93;2.73;;;;;;;;;;4994338;28;20203;-84
2021/12/14 09:57:32;;;;;;;3.33;3.00;;;;;;;;;;4995270;28;20207;-83
2021/12/14 10:00:22;;;;;;;3.33;2.50;;;;;;;;;;4999769;28;20264;-84
2021/12/14 10:02:53;;;;;;;3.57;3.27;;;;;;;;;;5005633;28;20223;-85
2021/12/14 10:05:22;;;;;;;3.83;2.83;;;;;;;;;;5010380;28;20251;-85
2021/12/14 10:07:49;;;;;;;4.00;3.20;;;;;;;;;;5012580;28;20207;-84
2021/12/14 10:10:21;;;;;;;5.73;3.33;;;;;;;;;;5006672;28;20230;-84
2021/12/14 10:12:53;;;;;;;3.40;3.10;;;;;;;;;;5005902;28;20195;-86
2021/12/14 10:15:31;;;;;;;4.63;3.33;;;;;;;;;;5000416;28;20200;-83
2021/12/14 10:18:00;;;;;;;5.37;4.07;;;;;;;;;;5005945;28;20210;-85
2021/12/14 10:20:29;;;;;;;3.60;3.30;;;;;;;;;;5003017;28;20274;-85
2021/12/14 10:22:57;;;;;;;3.67;3.33;;;;;;;;;;5001280;28;20249;-86
2021/12/14 10:25:28;;;;;;;4.73;3.80;;;;;;;;;;5008398;28;20214;-85
2021/12/14 10:27:56;;;;;;;3.87;3.57;;;;;;;;;;5011027;28;20223;-86
2021/12/14 10:30:26;;;;;;;3.80;3.50;;;;;;;;;;4996898;28;20223;-85
2021/12/14 10:32:55;;;;;;;3.87;3.57;;;;;;;;;;5004174;28;20247;-86
2021/12/14 10:35:25;;;;;;;3.80;3.50;;;;;;;;;;4999077;28;20218;-85
2021/12/14 10:43:27;;;;;;;6.87;3.47;;;;;;;;;;5002368;28;20282;-87
2021/12/14 10:46:00;;;;;;;4.27;3.87;;;;;;;;;;5021769;28;20203;-89
2021/12/14 10:48:30;;;;;;;3.67;3.37;;;;;;;;;;4998110;28;20298;-86
2021/12/14 10:50:59;;;;;;;3.70;3.40;;;;;;;;;;4995950;28;20203;-85
2021/12/14 10:53:26;;;;;;;4.23;3.83;;;;;;;;;;5012048;28;20207;-86
2021/12/14 10:55:55;;;;;;;4.53;4.13;;;;;;;;;;4996107;28;20223;-83
2021/12/14 10:58:23;;;;;;;4.67;4.27;;;;;;;;;;4998076;28;20203;-84
2021/12/14 11:00:52;;;;;;;4.77;4.37;;;;;;;;;;4999051;28;20279;-84
2021/12/14 11:03:26;;;;;;;4.97;4.57;;;;;;;;;;4998610;28;20254;-85
2021/12/14 11:05:57;;;;;;;5.95;5.30;;;;;;;;;;4998586;28;20535;-85
2021/12/14 11:08:41;;;;;;;4.83;4.43;;;;;;;;;;4997676;28;20203;-85
2021/12/14 11:11:11;;;;;;;6.17;4.67;;;;;;;;;;4992935;28;20211;-85
2021/12/14 11:13:44;;;;;;;4.90;4.50;;;;;;;;;;5001733;28;20218;-82
2021/12/14 11:16:18;;;;;;;5.07;4.47;;;;;;;;;;4995854;28;20347;-88
2021/12/14 11:18:47;;;;;;;5.83;4.23;;;;;;;;;;4999584;28;20362;-85
2021/12/14 11:21:19;;;;;;;5.10;4.60;;;;;;;;;;5005297;28;20286;-86
2021/12/14 11:23:47;;;;;;;6.17;4.47;;;;;;;;;;4999386;28;20265;-84
2021/12/14 11:26:17;;;;;;;4.50;4.10;;;;;;;;;;5004648;28;20234;-84
2021/12/14 11:28:45;;;;;;;5.07;4.67;;;;;;;;;;5002432;28;20256;-84
2021/12/14 11:31:14;;;;;;;4.90;4.40;;;;;;;;;;5001034;28;20200;-84
2021/12/14 11:33:45;;;;;;;4.93;4.53;;;;;;;;;;5010536;28;20207;-84
2021/12/14 11:36:13;;;;;;;5.53;5.03;;;;;;;;;;5007209;28;20229;-85
2021/12/14 11:38:44;;;;;;;5.00;4.60;;;;;;;;;;5005108;28;20291;-85
2021/12/14 11:41:27;;;;;;;6.10;4.90;;;;;;;;;;4998705;28;20203;-86
2021/12/14 11:43:56;;;;;;;5.13;4.63;;;;;;;;;;4990398;28;20266;-85
2021/12/14 11:46:23;;;;;;;5.00;4.50;;;;;;;;;;5006103;28;20202;-84
2021/12/14 11:48:51;;;;;;;5.67;5.10;;;;;;;;;;4998450;28;20227;-86
2021/12/14 11:51:18;;;;;;;5.13;4.63;;;;;;;;;;4995653;28;20203;-85
2021/12/14 11:53:53;;;;;;;6.10;5.60;;;;;;;;;;4998823;28;20218;-85
2021/12/14 11:56:21;;;;;;;6.83;6.20;;;;;;;;;;5002014;28;20195;-85
2021/12/14 11:58:54;;;;;;;6.07;5.47;;;;;;;;;;5000320;28;20246;-89
2021/12/14 12:01:25;;;;;;;6.33;5.73;;;;;;;;;;4996877;28;20215;-82
2021/12/14 12:03:56;;;;;;;6.60;6.00;;;;;;;;;;4991497;28;20220;-85
2021/12/14 12:09:31;;;;;;;6.27;5.67;;;;;;;;;;4963843;28;20227;-83
2021/12/14 12:12:00;;;;;;;6.77;6.07;;;;;;;;;;4994694;28;20205;-85
2021/12/14 12:14:30;;;;;;;6.47;5.80;;;;;;;;;;4998889;28;20235;-83
2021/12/14 12:16:59;;;;;;;7.20;6.57;;;;;;;;;;5003194;28;20265;-85
2021/12/14 12:19:28;;;;;;;8.80;7.13;;;;;;;;;;4996501;28;20265;-85
2021/12/14 12:21:56;;;;;;;9.07;8.17;;;;;;;;;;4994036;28;20200;-86
2021/12/14 12:24:50;;;;;;;8.93;8.03;;;;;;;;;;4988988;28;20243;-86
2021/12/14 12:27:40;;;;;;;9.30;7.97;;;;;;;;;;4966651;28;20233;-83
2021/12/14 12:30:23;;;;;;;9.60;8.60;;;;;;;;;;4991523;28;20218;-84
2021/12/14 12:32:51;;;;;;;11.97;8.97;;;;;;;;;;4996811;28;20226;-82
2021/12/14 12:35:24;;;;;;;9.73;8.73;;;;;;;;;;4999323;28;20199;-83
2021/12/14 12:37:51;;;;;;;12.53;9.30;;;;;;;;;;4991339;28;20226;-82
2021/12/14 12:40:20;;;;;;;11.53;9.50;;;;;;;;;;4994928;28;20223;-82
2021/12/14 12:42:47;;;;;;;11.07;9.47;;;;;;;;;;4996131;28;20198;-82
2021/12/14 12:45:27;;;;;;;10.83;9.13;;;;;;;;;;4992450;28;20347;-82
2021/12/14 12:47:54;;;;;;;10.27;9.17;;;;;;;;;;4995484;28;20295;-84
2021/12/14 12:50:25;;;;;;;11.37;8.50;;;;;;;;;;4992211;28;20215;-83
2021/12/14 12:52:52;;;;;;;10.00;8.43;;;;;;;;;;4994625;28;20254;-82
2021/12/14 12:55:28;;;;;;;10.23;9.13;;;;;;;;;;4986153;28;20242;-81
2021/12/14 12:58:10;;;;;;;9.73;8.73;;;;;;;;;;4993477;28;20219;-83
2021/12/14 13:00:42;;;;;;;9.70;8.70;;;;;;;;;;4981027;28;20223;-83
2021/12/14 13:03:12;;;;;;;9.07;8.10;;;;;;;;;;5004383;28;20294;-84
2021/12/14 13:05:43;;;;;;;8.93;7.97;;;;;;;;;;4994455;28;20219;-85
2021/12/14 13:08:14;;;;;;;10.30;8.80;;;;;;;;;;4995741;28;20223;-85
2021/12/14 13:10:44;;;;;;;10.43;8.73;;;;;;;;;;4991440;28;20286;-84
2021/12/14 13:13:12;;;;;;;10.33;9.10;;;;;;;;;;4994799;28;20195;-85
2021/12/14 13:15:44;;;;;;;12.30;8.80;;;;;;;;;;5013424;28;20207;-83
2021/12/14 13:18:26;;;;;;;10.27;8.50;;;;;;;;;;5011492;28;20203;-83
2021/12/14 13:20:54;;;;;;;11.10;8.87;;;;;;;;;;5008296;28;20194;-86
2021/12/14 13:23:23;;;;;;;14.83;11.60;;;;;;;;;;5014967;28;20277;-81
2021/12/14 13:25:58;;;;;;;14.70;9.50;;;;;;;;;;5015256;28;20206;-83
2021/12/14 13:28:40;;;;;;;15.93;9.60;;;;;;;;;;4998241;28;20319;-84
2021/12/14 13:31:10;;;;;;;11.37;9.70;;;;;;;;;;4993155;28;20242;-84
2021/12/14 13:33:37;;;;;;;12.47;9.97;;;;;;;;;;4994556;28;20215;-85
2021/12/14 13:36:05;;;;;;;10.93;9.33;;;;;;;;;;4996272;28;20207;-84
2021/12/14 13:38:32;;;;;;;11.77;9.33;;;;;;;;;;5000945;28;20199;-85
2021/12/14 13:41:01;;;;;;;13.00;10.33;;;;;;;;;;4995808;28;20261;-85
2021/12/14 13:43:39;;;;;;;12.33;10.23;;;;;;;;;;4996027;28;20227;-86
2021/12/14 13:46:07;;;;;;;12.00;9.87;;;;;;;;;;4996135;28;20205;-83
2021/12/14 13:48:38;;;;;;;14.25;12.75;;;;;;;;;;4993105;28;20448;-85
2021/12/14 13:51:07;;;;;;;14.63;11.07;;;;;;;;;;4998853;28;20203;-85
2021/12/14 13:53:35;;;;;;;14.50;10.80;;;;;;;;;;4996152;28;20207;-84
2021/12/14 13:56:07;;;;;;;14.83;11.30;;;;;;;;;;5000748;28;20208;-84
2021/12/14 13:58:36;;;;;;;13.10;10.53;;;;;;;;;;4990802;28;20265;-83
2021/12/14 14:01:06;;;;;;;14.07;10.50;;;;;;;;;;4993579;28;20267;-83
2021/12/14 14:03:34;;;;;;;14.33;10.80;;;;;;;;;;5002853;28;20258;-85
2021/12/14 14:06:06;;;;;;;16.00;11.23;;;;;;;;;;4991923;28;20204;-85
2021/12/14 14:08:34;;;;;;;14.50;10.97;;;;;;;;;;4998851;28;20214;-84
2021/12/14 14:11:09;;;;;;;17.60;13.20;;;;;;;;;;5000065;28;20616;-85
2021/12/14 14:13:38;;;;;;;16.20;12.03;;;;;;;;;;5000961;28;20198;-85
2021/12/14 14:16:06;;;;;;;18.10;12.73;;;;;;;;;;4996948;28;20203;-85
2021/12/14 14:18:35;;;;;;;14.57;11.07;;;;;;;;;;4997947;28;20238;-85
2021/12/14 14:21:05;;;;;;;15.23;11.23;;;;;;;;;;5042312;22;20230;-84
2021/12/14 14:23:36;;;;;;;15.50;12.97;;;;;;;;;;5023004;28;20453;-83
2021/12/14 14:26:04;;;;;;;12.57;10.40;;;;;;;;;;5021787;28;20465;-84
2021/12/14 14:28:45;;;;;;;13.67;10.20;;;;;;;;;;5017357;28;20289;-85
2021/12/14 14:31:14;;;;;;;14.60;10.23;;;;;;;;;;5000645;28;20226;-82
2021/12/14 14:33:48;;;;;;;12.73;9.80;;;;;;;;;;5000772;28;20203;-82
2021/12/14 14:36:26;;;;;;;13.90;10.30;;;;;;;;;;5001970;28;20626;-83
2021/12/14 14:38:54;;;;;;;14.43;10.47;;;;;;;;;;4994691;28;20195;-82
2021/12/14 14:41:32;;;;;;;13.93;10.93;;;;;;;;;;4996551;28;20278;-80
2021/12/14 14:44:05;;;;;;;14.47;10.80;;;;;;;;;;5003120;28;20249;-81
2021/12/14 14:46:53;;;;;;;15.23;10.93;;;;;;;;;;5007356;28;20217;-82
2021/12/14 14:49:21;;;;;;;15.17;11.50;;;;;;;;;;4999228;28;20230;-83
2021/12/14 14:51:52;;;;;;;16.10;11.33;;;;;;;;;;5000156;28;20211;-83
2021/12/14 14:54:41;;;;;;;13.90;10.73;;;;;;;;;;4998364;28;20267;-85
2021/12/14 14:57:23;;;;;;;17.07;10.87;;;;;;;;;;4993132;28;20236;-85
2021/12/14 15:00:06;;;;;;;13.83;10.40;;;;;;;;;;4995697;28;20310;-85
2021/12/14 15:02:48;;;;;;;15.03;10.37;;;;;;;;;;4998749;28;20216;-85
2021/12/14 15:05:17;;;;;;;16.50;11.27;;;;;;;;;;4991893;28;20254;-85
2021/12/14 15:07:58;;;;;;;12.77;9.80;;;;;;;;;;4997172;28;20242;-86
2021/12/14 15:10:32;;;;;;;15.13;11.07;;;;;;;;;;4996221;28;20231;-87
2021/12/14 15:13:20;;;;;;;18.77;12.83;;;;;;;;;;4995083;28;20241;-85
2021/12/14 15:15:58;;;;;;;16.27;12.07;;;;;;;;;;4993597;28;20223;-86
2021/12/14 15:18:46;;;;;;;17.87;12.83;;;;;;;;;;4997570;28;20211;-84
2021/12/14 15:21:25;;;;;;;21.17;14.13;;;;;;;;;;4995693;28;20255;-85
2021/12/14 15:23:53;;;;;;;19.97;13.87;;;;;;;;;;4997620;28;20273;-85